Aplicació Alertes

Dades de l'estació automàtica Organyà

?
?
Resum diari 23:00 TU
Dades diàries de l'estació meteorològica
Temperatura mitjana 5.0 °C
Temperatura màxima 12.8 °C 14:47 TU
Temperatura mínima -0.9 °C 7:45 TU
Humitat relativa mitjana 85%
Precipitació acumulada 0.0 mm
Ratxa màxima del vent (10 m) 21.6 km/h - 24º 21:56 TU
Pressió atmosfèrica mitjana 1025.5 hPa
Irradiació solar global 9.4 MJ/m2

El tram horari està expressat en Temps Universal (TU). Cal sumar una hora en horari d'hivern i dues en horari d'estiu per passar a l'hora oficial.

Organyà

Metadades estació meteorol´gica
Municipi Organyà
Comarca Alt Urgell
Altitud 566 m
Data alta 16.01.1996
Estat actual Operativa
Dades de període
Període
TU
TM
°C
TX
°C
TN
°C
HRM
%
PPT
mm
VVM (10 m)
km/h
DVM (10 m)
graus
VVX (10 m)
km/h
PM
hPa
RS
W/m2
00:00 - 00:30 5.3 5.5 4.9 88 0.0 4.3 353 9.0 1025.4 0
00:30 - 01:00 4.9 5.5 4.6 89 0.0 5.0 331 11.2 1025.6 0
01:00 - 01:30 4.3 4.6 3.9 88 0.0 5.4 311 14.8 1025.7 0
01:30 - 02:00 3.9 4.4 3.4 90 0.0 3.2 274 7.9 1025.8 0
02:00 - 02:30 3.1 3.3 2.8 92 0.0 3.2 283 8.6 1025.9 0
02:30 - 03:00 2.5 2.9 2.1 94 0.0 3.2 266 7.9 1026.2 0
03:00 - 03:30 2.2 2.5 1.8 94 0.0 3.2 315 8.3 1026.1 0
03:30 - 04:00 1.9 2.4 1.4 95 0.0 2.5 288 8.3 1026.3 0
04:00 - 04:30 1.8 2.0 1.4 96 0.0 4.0 310 10.1 1026.2 0
04:30 - 05:00 1.6 1.7 1.4 95 0.0 3.6 279 8.6 1026.3 0
05:00 - 05:30 1.0 1.4 0.7 96 0.0 2.5 223 6.1 1026.6 0
05:30 - 06:00 0.4 0.7 0.0 97 0.0 3.6 306 7.9 1026.7 0
06:00 - 06:30 0.4 0.7 0.0 97 0.0 3.6 330 8.3 1026.8 0
06:30 - 07:00 -0.2 0.4 -0.6 97 0.0 1.8 267 4.7 1027.2 0
07:00 - 07:30 -0.4 0.0 -0.8 98 0.0 2.5 311 5.8 1027.4 2
07:30 - 08:00 -0.6 -0.3 -0.9 98 0.0 2.2 264 4.7 1027.6 14
08:00 - 08:30 -0.6 0.0 -0.7 98 0.0 1.4 252 4.7 1027.8 56
08:30 - 09:00 1.4 2.6 0.2 97 0.0 1.1 192 3.2 1027.5 243
09:00 - 09:30 3.8 4.3 2.7 86 0.0 1.4 82 5.0 1027.0 284
09:30 - 10:00 5.0 6.6 3.8 81 0.0 1.8 127 4.7 1026.9 351
10:00 - 10:30 6.7 7.4 6.0 76 0.0 3.2 134 7.9 1026.5 434
10:30 - 11:00 8.3 9.0 6.7 70 0.0 2.5 172 7.6 1025.7 476
11:00 - 11:30 9.3 10.0 8.4 65 0.0 3.2 173 8.3 1025.1 458
11:30 - 12:00 10.2 10.6 9.9 66 0.0 7.2 173 15.5 1024.4 450
12:00 - 12:30 9.9 10.6 9.5 70 0.0 9.4 170 18.7 1023.9 351
12:30 - 13:00 10.7 11.1 10.3 67 0.0 8.3 177 14.4 1023.3 406
13:00 - 13:30 11.2 12.2 10.6 67 0.0 8.3 180 14.8 1022.8 404
13:30 - 14:00 11.5 11.9 11.1 66 0.0 10.1 174 20.5 1022.4 315
14:00 - 14:30 11.4 12.2 10.9 68 0.0 9.0 172 18.0 1022.4 321
14:30 - 15:00 12.5 12.8 12.1 64 0.0 8.6 181 16.9 1022.0 305
15:00 - 15:30 12.5 12.6 12.4 64 0.0 8.6 181 14.8 1021.9 226
15:30 - 16:00 12.3 12.8 11.1 63 0.0 4.7 244 10.1 1022.1 148
16:00 - 16:30 9.2 10.7 8.0 71 0.0 5.4 284 13.0 1022.9 42
16:30 - 17:00 7.8 8.3 7.2 77 0.0 7.6 295 14.8 1023.6 7
17:00 - 17:30 6.5 7.1 6.0 81 0.0 7.9 309 12.6 1024.1 0
17:30 - 18:00 5.8 6.3 5.4 83 0.0 5.0 317 12.6 1024.6 0
18:00 - 18:30 5.3 5.6 4.8 85 0.0 3.6 283 8.3 1025.1 0
18:30 - 19:00 4.5 4.8 3.9 87 0.0 4.0 275 13.7 1025.4 0
19:00 - 19:30 3.9 4.4 3.5 89 0.0 3.2 294 12.6 1025.6 0
19:30 - 20:00 3.7 4.4 3.4 89 0.0 3.6 279 9.7 1025.6 0
20:00 - 20:30 3.7 4.0 3.3 90 0.0 4.3 197 9.4 1025.6 0
20:30 - 21:00 2.8 3.3 2.4 93 0.0 2.9 341 10.4 1026.2 0
21:00 - 21:30 2.6 3.0 2.2 93 0.0 2.5 252 7.9 1026.6 0
21:30 - 22:00 2.2 2.7 2.0 95 0.0 3.6 234 21.6 1027.2 0
22:00 - 22:30 2.5 3.1 2.2 95 0.0 5.0 214 15.8 1027.1 0
22:30 - 23:00 2.6 2.9 2.3 96 0.0 3.6 306 10.1 1027.5 0
23:00 - 23:30 2.3 2.7 1.8 97 0.0 3.2 247 7.2 1027.6 0

Les dades en taronja només han passat un control de qualitat automàtic. Resta pendent la seva validació definitiva.